createdAt,value
2023-05-07T00:01:23.260Z,16.17
2023-05-07T00:03:53.343Z,15.88
2023-05-07T00:06:21.446Z,16.11
2023-05-07T00:08:49.541Z,16.02
2023-05-07T00:11:17.937Z,15.84
2023-05-07T00:13:45.979Z,15.92
2023-05-07T00:16:14.377Z,15.89
2023-05-07T00:18:42.904Z,16.16
2023-05-07T00:21:13.082Z,16.09
2023-05-07T00:23:41.436Z,15.96
2023-05-07T00:26:09.917Z,15.98
2023-05-07T00:28:38.129Z,15.92
2023-05-07T00:31:06.516Z,15.96
2023-05-07T00:33:34.662Z,16.00
2023-05-07T00:36:03.312Z,16.09
2023-05-07T00:38:33.121Z,15.92
2023-05-07T00:41:01.680Z,16.00
2023-05-07T00:43:31.264Z,15.95
2023-05-07T00:46:00.284Z,16.03
2023-05-07T00:48:29.224Z,15.97
2023-05-07T00:50:58.726Z,15.90
2023-05-07T00:53:27.766Z,15.98
2023-05-07T00:55:58.141Z,16.06
2023-05-07T00:58:26.476Z,16.12
2023-05-07T01:00:54.938Z,16.12
2023-05-07T01:03:23.745Z,16.02
2023-05-07T01:05:53.963Z,15.94
2023-05-07T01:08:26.724Z,15.89
2023-05-07T01:10:57.161Z,15.90
2023-05-07T01:13:27.301Z,15.82
2023-05-07T01:15:55.535Z,15.88
2023-05-07T01:18:23.931Z,15.85
2023-05-07T01:20:52.395Z,15.75
2023-05-07T01:23:22.849Z,15.81
2023-05-07T01:25:54.389Z,15.67
2023-05-07T01:28:22.722Z,15.75
2023-05-07T01:30:56.655Z,15.70
2023-05-07T01:33:25.833Z,15.63
2023-05-07T01:35:55.925Z,15.54
2023-05-07T01:38:26.433Z,15.50
2023-05-07T01:40:55.834Z,15.45
2023-05-07T01:43:24.372Z,15.44
2023-05-07T01:45:52.682Z,15.38
2023-05-07T01:48:22.988Z,15.48
2023-05-07T01:50:52.330Z,15.35
2023-05-07T01:53:20.672Z,15.31
2023-05-07T01:55:50.403Z,15.26
2023-05-07T01:58:18.506Z,15.26
2023-05-07T02:00:46.869Z,15.13
2023-05-07T02:03:15.334Z,15.09
2023-05-07T02:05:43.483Z,15.26
2023-05-07T02:08:11.644Z,15.27
2023-05-07T02:10:40.345Z,15.26
2023-05-07T02:13:10.108Z,15.19
2023-05-07T02:15:38.654Z,15.29
2023-05-07T02:18:10.194Z,15.32
2023-05-07T02:20:38.600Z,15.32
2023-05-07T02:23:06.881Z,15.29
2023-05-07T02:25:35.069Z,15.29
2023-05-07T02:28:03.229Z,15.30
2023-05-07T02:30:32.957Z,15.16
2023-05-07T02:33:01.393Z,15.11
2023-05-07T02:35:30.155Z,15.02
2023-05-07T02:37:58.202Z,15.01
2023-05-07T02:40:26.322Z,15.13
2023-05-07T02:42:54.410Z,15.18
2023-05-07T02:45:22.595Z,15.09
2023-05-07T02:47:53.906Z,15.07
2023-05-07T02:50:22.105Z,15.07
2023-05-07T02:52:52.982Z,14.96
2023-05-07T02:55:22.025Z,14.98
2023-05-07T02:57:50.285Z,14.97
2023-05-07T03:00:20.562Z,15.00
2023-05-07T03:02:48.791Z,14.88
2023-05-07T03:05:21.162Z,14.91
2023-05-07T03:07:49.180Z,15.14
2023-05-07T03:10:17.393Z,15.09
2023-05-07T03:12:46.029Z,15.16
2023-05-07T03:15:14.949Z,15.11
2023-05-07T03:17:43.440Z,15.20
2023-05-07T03:20:13.375Z,15.09
2023-05-07T03:22:43.680Z,15.03
2023-05-07T03:25:13.658Z,15.10
2023-05-07T03:27:43.576Z,15.07
2023-05-07T03:30:13.097Z,15.15
2023-05-07T03:32:42.919Z,14.87
2023-05-07T03:35:11.529Z,14.80
2023-05-07T03:37:40.209Z,14.77
2023-05-07T03:40:12.664Z,14.73
2023-05-07T03:42:40.948Z,14.62
2023-05-07T03:45:10.980Z,14.65
2023-05-07T03:47:39.235Z,14.61
2023-05-07T03:50:08.250Z,14.81
2023-05-07T03:52:36.820Z,14.71
2023-05-07T03:55:05.300Z,14.70
2023-05-07T03:57:34.856Z,14.85
2023-05-07T04:00:03.881Z,14.65
2023-05-07T04:02:32.604Z,14.78
2023-05-07T04:05:01.050Z,14.85
2023-05-07T04:07:29.277Z,15.01
2023-05-07T04:09:57.370Z,14.83
2023-05-07T04:12:25.455Z,14.94
2023-05-07T04:14:56.288Z,14.81
2023-05-07T04:17:24.327Z,14.70
2023-05-07T04:19:52.751Z,14.64
2023-05-07T04:22:22.370Z,14.59
2023-05-07T04:24:51.208Z,14.56
2023-05-07T04:27:19.678Z,14.55
2023-05-07T04:29:48.547Z,14.42
2023-05-07T04:32:18.792Z,14.72
2023-05-07T04:34:47.488Z,14.80
2023-05-07T04:37:15.588Z,14.91
2023-05-07T04:39:43.810Z,14.92
2023-05-07T04:42:12.064Z,14.93
2023-05-07T04:44:40.290Z,14.97
2023-05-07T04:47:08.822Z,14.89
2023-05-07T04:49:38.521Z,14.91
2023-05-07T04:52:06.963Z,14.77
2023-05-07T04:54:35.158Z,14.95
2023-05-07T04:57:03.380Z,14.93
2023-05-07T04:59:31.407Z,14.93
2023-05-07T05:01:59.812Z,14.96
2023-05-07T05:04:28.387Z,15.00
2023-05-07T05:06:58.563Z,14.87
2023-05-07T05:09:26.778Z,14.89
2023-05-07T05:11:55.107Z,14.92
2023-05-07T05:14:23.914Z,15.05
2023-05-07T05:16:52.120Z,15.15
2023-05-07T05:19:20.373Z,15.11
2023-05-07T05:21:49.742Z,15.06
2023-05-07T05:24:19.549Z,15.15
2023-05-07T05:26:47.725Z,15.07
2023-05-07T05:29:16.093Z,14.99
2023-05-07T05:31:44.184Z,15.10
2023-05-07T05:34:12.750Z,15.05
2023-05-07T05:36:41.058Z,15.07
2023-05-07T05:39:09.891Z,14.96
2023-05-07T05:41:39.870Z,15.12
2023-05-07T05:44:08.356Z,15.16
2023-05-07T05:46:40.143Z,15.01
2023-05-07T05:49:08.341Z,15.10
2023-05-07T05:51:36.777Z,15.20
2023-05-07T05:54:05.816Z,15.12
2023-05-07T05:56:34.152Z,15.24
2023-05-07T05:59:04.034Z,15.30
2023-05-07T06:01:32.285Z,15.28
2023-05-07T06:04:00.779Z,15.40
2023-05-07T06:06:29.498Z,15.29
2023-05-07T06:08:57.645Z,15.40
2023-05-07T06:11:26.625Z,15.26
2023-05-07T06:13:54.924Z,15.20
2023-05-07T06:16:24.802Z,15.13
2023-05-07T06:18:53.096Z,15.30
2023-05-07T06:21:21.314Z,15.26
2023-05-07T06:23:49.343Z,15.41
2023-05-07T06:26:17.790Z,15.18
2023-05-07T06:28:46.201Z,15.53
2023-05-07T06:31:15.880Z,15.53
2023-05-07T06:33:47.609Z,15.67
2023-05-07T06:36:15.723Z,15.57
2023-05-07T06:38:45.571Z,15.64
2023-05-07T06:41:14.051Z,15.71
2023-05-07T06:43:42.104Z,15.76
2023-05-07T06:46:10.313Z,15.93
2023-05-07T06:48:38.423Z,16.08
2023-05-07T06:51:09.791Z,16.01
2023-05-07T06:53:40.498Z,15.94
2023-05-07T06:56:09.202Z,15.97
2023-05-07T06:58:37.509Z,15.98
2023-05-07T07:01:07.246Z,15.93
2023-05-07T07:03:35.446Z,15.98
2023-05-07T07:06:04.549Z,16.18
2023-05-07T07:08:34.576Z,16.19
2023-05-07T07:11:02.749Z,16.22
2023-05-07T07:13:31.006Z,16.21
2023-05-07T07:15:59.519Z,16.45
2023-05-07T07:18:27.757Z,16.51
2023-05-07T07:20:56.102Z,16.57
2023-05-07T07:23:24.180Z,16.81
2023-05-07T07:25:57.039Z,16.92
2023-05-07T07:28:27.540Z,17.03
2023-05-07T07:30:55.749Z,16.92
2023-05-07T07:33:24.228Z,16.94
2023-05-07T07:35:52.435Z,17.09
2023-05-07T07:38:20.665Z,17.06
2023-05-07T07:40:50.316Z,17.36
2023-05-07T07:43:20.083Z,17.39
2023-05-07T07:45:48.552Z,17.50
2023-05-07T07:48:17.013Z,17.34
2023-05-07T07:50:46.313Z,17.10
2023-05-07T07:53:14.632Z,17.36
2023-05-07T07:55:43.018Z,17.35
2023-05-07T07:58:11.259Z,17.57
2023-05-07T08:00:41.093Z,17.11
2023-05-07T08:03:12.471Z,17.46
2023-05-07T08:05:41.134Z,17.58
2023-05-07T08:08:09.673Z,17.62
2023-05-07T08:10:39.473Z,17.27
2023-05-07T08:13:07.981Z,17.57
2023-05-07T08:15:36.083Z,17.64
2023-05-07T08:18:06.858Z,18.09
2023-05-07T08:20:38.391Z,17.84
2023-05-07T08:23:07.258Z,18.02
2023-05-07T08:25:35.733Z,17.96
2023-05-07T08:28:04.450Z,18.02
2023-05-07T08:30:32.526Z,18.34
2023-05-07T08:33:00.948Z,18.06
2023-05-07T08:35:30.820Z,18.41
2023-05-07T08:37:59.369Z,18.35
2023-05-07T08:40:28.320Z,18.42
2023-05-07T08:42:57.745Z,18.47
2023-05-07T08:45:26.698Z,18.52
2023-05-07T08:48:00.697Z,18.26
2023-05-07T08:50:30.832Z,18.03
2023-05-07T08:52:59.786Z,18.25
2023-05-07T08:55:28.228Z,18.42
2023-05-07T08:57:56.537Z,18.59
2023-05-07T09:00:25.230Z,18.91
2023-05-07T09:02:55.164Z,18.92
2023-05-07T09:05:23.571Z,18.84
2023-05-07T09:07:54.615Z,19.07
2023-05-07T09:10:23.474Z,19.25
2023-05-07T09:12:51.617Z,18.94
2023-05-07T09:15:20.468Z,19.35
2023-05-07T09:17:48.820Z,19.22
2023-05-07T09:20:18.752Z,19.54
2023-05-07T09:22:47.066Z,19.61
2023-05-07T09:25:16.670Z,19.51
2023-05-07T09:27:45.412Z,19.39
2023-05-07T09:30:15.193Z,19.37
2023-05-07T09:32:43.445Z,19.65
2023-05-07T09:35:18.255Z,19.96
2023-05-07T09:37:46.949Z,19.86
2023-05-07T09:40:25.571Z,20.17
2023-05-07T09:42:54.100Z,19.91
2023-05-07T09:45:25.992Z,20.16
2023-05-07T09:47:58.173Z,20.34
2023-05-07T09:50:29.877Z,20.24
2023-05-07T09:52:59.442Z,20.17
2023-05-07T09:55:29.625Z,20.68
2023-05-07T09:57:58.162Z,20.78
2023-05-07T10:00:28.207Z,20.76
2023-05-07T10:02:59.974Z,20.37
2023-05-07T10:05:28.942Z,20.57
2023-05-07T10:07:58.807Z,20.84
2023-05-07T10:10:30.362Z,21.26
2023-05-07T10:12:59.704Z,21.40
2023-05-07T10:15:29.127Z,21.76
2023-05-07T10:17:58.548Z,22.10
2023-05-07T10:20:29.442Z,22.18
2023-05-07T10:22:59.735Z,22.36
2023-05-07T10:25:32.400Z,22.11
2023-05-07T10:28:07.406Z,22.25
2023-05-07T10:30:50.950Z,22.21
2023-05-07T10:33:24.156Z,22.75
2023-05-07T10:35:52.699Z,22.45
2023-05-07T10:38:21.665Z,22.84
2023-05-07T10:40:53.098Z,22.94
2023-05-07T10:43:21.391Z,22.90
2023-05-07T10:46:12.276Z,22.30
2023-05-07T10:49:12.687Z,22.32
2023-05-07T10:51:41.566Z,22.54
2023-05-07T10:54:23.887Z,22.77
2023-05-07T10:56:53.598Z,23.37
2023-05-07T10:59:43.314Z,23.54
2023-05-07T11:02:15.405Z,22.90
2023-05-07T11:04:46.078Z,23.25
2023-05-07T11:07:26.900Z,23.66
2023-05-07T11:10:06.721Z,23.38
2023-05-07T11:12:56.179Z,23.23
2023-05-07T11:15:44.481Z,23.72
2023-05-07T11:18:14.132Z,23.09
2023-05-07T11:20:51.365Z,23.42
2023-05-07T11:23:52.714Z,23.78
2023-05-07T11:26:21.526Z,23.96
2023-05-07T11:28:52.772Z,23.70
2023-05-07T11:31:24.853Z,23.64
2023-05-07T11:33:54.204Z,23.62
2023-05-07T11:36:23.474Z,23.88
2023-05-07T11:38:51.897Z,23.29
2023-05-07T11:41:21.856Z,23.44
2023-05-07T11:43:59.331Z,23.72
2023-05-07T11:46:27.883Z,23.75
2023-05-07T11:48:56.442Z,23.85
2023-05-07T11:51:27.129Z,24.05
2023-05-07T11:53:56.275Z,24.35
2023-05-07T11:56:24.655Z,24.63
2023-05-07T11:58:53.313Z,24.92
2023-05-07T12:01:22.874Z,24.50
2023-05-07T12:03:51.173Z,24.38
2023-05-07T12:06:21.035Z,24.25
2023-05-07T12:08:49.468Z,24.25
2023-05-07T12:11:23.967Z,23.99
2023-05-07T12:13:52.120Z,24.44
2023-05-07T12:16:21.776Z,25.29
2023-05-07T12:18:53.771Z,25.90
2023-05-07T12:21:21.990Z,26.07
2023-05-07T12:23:50.645Z,26.57
2023-05-07T12:26:18.948Z,26.44
2023-05-07T12:28:48.327Z,25.72
2023-05-07T12:31:17.399Z,25.45
2023-05-07T12:33:45.742Z,25.67
2023-05-07T12:36:15.962Z,26.03
2023-05-07T12:38:44.245Z,26.25
2023-05-07T12:41:13.702Z,26.35
2023-05-07T12:43:42.037Z,26.60
2023-05-07T12:46:10.209Z,26.89
2023-05-07T12:48:40.052Z,26.75
2023-05-07T12:51:08.854Z,26.74
2023-05-07T12:53:43.368Z,26.96
2023-05-07T12:56:11.873Z,27.05
2023-05-07T12:58:40.017Z,27.44
2023-05-07T13:01:11.268Z,27.78
2023-05-07T13:03:40.929Z,27.13
2023-05-07T13:06:13.419Z,26.90
2023-05-07T13:08:45.233Z,25.93
2023-05-07T13:11:14.575Z,26.17
2023-05-07T13:13:43.742Z,26.12
2023-05-07T13:16:13.655Z,26.00
2023-05-07T13:18:45.063Z,26.14
2023-05-07T13:21:14.636Z,25.86
2023-05-07T13:23:44.728Z,25.90
2023-05-07T13:26:25.786Z,25.70
2023-05-07T13:28:55.727Z,26.06
2023-05-07T13:31:24.035Z,26.51
2023-05-07T13:33:52.179Z,25.80
2023-05-07T13:36:20.332Z,25.37
2023-05-07T13:38:50.453Z,25.65
2023-05-07T13:41:18.843Z,25.71
2023-05-07T13:43:46.909Z,25.91
2023-05-07T13:46:15.329Z,26.83
2023-05-07T13:48:43.754Z,26.64
2023-05-07T13:51:12.113Z,26.63
2023-05-07T13:53:40.345Z,26.67
2023-05-07T13:56:10.238Z,26.43
2023-05-07T13:58:52.104Z,26.40
2023-05-07T14:01:25.128Z,26.81
2023-05-07T14:03:53.371Z,26.78
2023-05-07T14:06:21.932Z,26.99
2023-05-07T14:08:52.007Z,27.12
2023-05-07T14:11:21.942Z,27.19
2023-05-07T14:13:50.293Z,27.03
2023-05-07T14:16:18.490Z,27.41
2023-05-07T14:18:46.990Z,27.42
2023-05-07T14:21:15.702Z,27.41
2023-05-07T14:23:43.793Z,26.79
2023-05-07T14:26:12.193Z,26.63
2023-05-07T14:28:47.266Z,26.28
2023-05-07T14:31:16.097Z,25.75
2023-05-07T14:33:44.219Z,25.72
2023-05-07T14:36:12.316Z,26.22
2023-05-07T14:38:40.963Z,26.23
2023-05-07T14:41:09.349Z,26.31
2023-05-07T14:43:37.617Z,25.86
2023-05-07T14:46:07.885Z,25.86
2023-05-07T14:48:37.655Z,25.76
2023-05-07T14:51:06.428Z,25.85
2023-05-07T14:53:35.091Z,25.81
2023-05-07T14:56:03.617Z,25.09
2023-05-07T14:58:32.045Z,25.21
2023-05-07T15:01:01.225Z,25.22
2023-05-07T15:03:31.371Z,25.10
2023-05-07T15:05:59.629Z,24.97
2023-05-07T15:08:27.824Z,25.03
2023-05-07T15:10:56.430Z,24.70
2023-05-07T15:13:24.537Z,24.72
2023-05-07T15:15:53.122Z,24.53
2023-05-07T15:18:22.869Z,24.82
2023-05-07T15:20:54.182Z,24.51
2023-05-07T15:23:22.514Z,24.55
2023-05-07T15:25:52.482Z,24.80
2023-05-07T15:28:21.283Z,24.16
2023-05-07T15:30:49.858Z,24.48
2023-05-07T15:33:18.311Z,24.69
2023-05-07T15:35:46.796Z,24.36
2023-05-07T15:38:16.919Z,23.98
2023-05-07T15:40:45.877Z,24.31
2023-05-07T15:43:14.267Z,23.99
2023-05-07T15:45:43.480Z,23.86
2023-05-07T15:48:12.960Z,23.45
2023-05-07T15:50:41.466Z,23.40
2023-05-07T15:53:10.058Z,23.23
2023-05-07T15:55:40.988Z,23.12
2023-05-07T15:58:09.389Z,23.29
2023-05-07T16:00:41.389Z,23.43
2023-05-07T16:03:10.378Z,23.19
2023-05-07T16:05:38.611Z,23.18
2023-05-07T16:08:07.854Z,23.13
2023-05-07T16:10:37.650Z,23.05
2023-05-07T16:13:07.490Z,22.88
2023-05-07T16:15:36.086Z,22.87
2023-05-07T16:18:04.661Z,22.68
2023-05-07T16:20:33.048Z,22.83
2023-05-07T16:23:01.449Z,22.25
2023-05-07T16:25:29.730Z,22.16
2023-05-07T16:27:57.850Z,22.06
2023-05-07T16:30:27.904Z,21.93
2023-05-07T16:32:56.373Z,22.12
2023-05-07T16:35:24.754Z,21.90
2023-05-07T16:37:53.266Z,22.03
2023-05-07T16:40:21.408Z,21.57
2023-05-07T16:42:49.848Z,21.64
2023-05-07T16:45:21.142Z,21.54
2023-05-07T16:47:50.928Z,21.69
2023-05-07T16:50:19.156Z,21.35
2023-05-07T16:52:48.065Z,21.21
2023-05-07T16:55:16.172Z,21.36
2023-05-07T16:57:44.250Z,21.23
2023-05-07T17:00:13.376Z,21.09
2023-05-07T17:02:43.682Z,21.20
2023-05-07T17:05:13.923Z,21.07
2023-05-07T17:07:42.320Z,21.02
2023-05-07T17:10:11.425Z,21.05
2023-05-07T17:12:39.808Z,20.53
2023-05-07T17:15:08.868Z,20.64
2023-05-07T17:17:37.002Z,20.54
2023-05-07T17:20:05.994Z,20.31
2023-05-07T17:22:35.713Z,20.37
2023-05-07T17:25:04.441Z,20.16
2023-05-07T17:27:34.168Z,20.01
2023-05-07T17:30:02.689Z,19.96
2023-05-07T17:32:32.895Z,20.01
2023-05-07T17:35:01.013Z,19.87
2023-05-07T17:37:29.663Z,20.04
2023-05-07T17:39:59.479Z,19.80
2023-05-07T17:42:27.815Z,19.79
2023-05-07T17:44:56.285Z,19.63
2023-05-07T17:47:24.994Z,19.67
2023-05-07T17:49:53.464Z,19.68
2023-05-07T17:52:21.913Z,19.63
2023-05-07T17:54:51.246Z,19.27
2023-05-07T17:57:21.111Z,19.49
2023-05-07T17:59:49.531Z,19.36
2023-05-07T18:02:17.879Z,19.45
2023-05-07T18:04:46.370Z,19.14
2023-05-07T18:07:14.995Z,19.10
2023-05-07T18:09:43.511Z,19.18
2023-05-07T18:12:12.183Z,19.08
2023-05-07T18:14:42.203Z,19.13
2023-05-07T18:17:11.661Z,18.97
2023-05-07T18:19:39.795Z,18.56
2023-05-07T18:22:07.920Z,18.82
2023-05-07T18:24:36.296Z,18.54
2023-05-07T18:27:06.270Z,18.86
2023-05-07T18:29:34.318Z,18.53
2023-05-07T18:32:03.955Z,18.32
2023-05-07T18:34:32.511Z,18.28
2023-05-07T18:37:00.949Z,18.45
2023-05-07T18:39:29.527Z,18.57
2023-05-07T18:41:58.410Z,18.49
2023-05-07T18:44:26.488Z,18.18
2023-05-07T18:46:54.718Z,17.91
2023-05-07T18:49:24.651Z,17.99
2023-05-07T18:51:53.461Z,18.18
2023-05-07T18:54:21.631Z,18.22
2023-05-07T18:56:49.708Z,18.26
2023-05-07T18:59:18.345Z,18.43
2023-05-07T19:01:48.256Z,18.38
2023-05-07T19:04:18.320Z,18.09
2023-05-07T19:06:48.071Z,18.06
2023-05-07T19:09:17.069Z,18.07
2023-05-07T19:11:45.686Z,18.18
2023-05-07T19:14:14.126Z,17.92
2023-05-07T19:16:44.025Z,17.98
2023-05-07T19:19:12.213Z,18.08
2023-05-07T19:21:40.700Z,17.56
2023-05-07T19:24:12.069Z,17.70
2023-05-07T19:26:41.286Z,17.73
2023-05-07T19:29:17.614Z,17.30
2023-05-07T19:31:46.721Z,17.32
2023-05-07T19:34:15.542Z,17.25
2023-05-07T19:36:44.019Z,17.35
2023-05-07T19:39:14.100Z,17.10
2023-05-07T19:41:43.152Z,17.23
2023-05-07T19:44:11.641Z,17.25
2023-05-07T19:46:44.921Z,17.07
2023-05-07T19:49:13.332Z,17.02
2023-05-07T19:51:41.726Z,16.87
2023-05-07T19:54:09.936Z,17.08
2023-05-07T19:56:40.185Z,17.21
2023-05-07T19:59:11.062Z,17.21
2023-05-07T20:01:40.530Z,17.22
2023-05-07T20:04:08.714Z,17.20
2023-05-07T20:06:36.897Z,17.06
2023-05-07T20:09:06.453Z,17.08
2023-05-07T20:11:34.870Z,17.19
2023-05-07T20:14:06.035Z,17.32
2023-05-07T20:16:34.752Z,17.37
2023-05-07T20:19:03.544Z,17.30
2023-05-07T20:21:32.143Z,17.27
2023-05-07T20:24:00.614Z,17.21
2023-05-07T20:26:29.073Z,17.29
2023-05-07T20:28:57.324Z,17.24
2023-05-07T20:31:26.889Z,17.18
2023-05-07T20:33:55.246Z,17.04
2023-05-07T20:36:26.160Z,17.12
2023-05-07T20:38:54.322Z,16.92
2023-05-07T20:41:24.931Z,16.78
2023-05-07T20:43:53.122Z,16.88
2023-05-07T20:46:23.137Z,16.71
2023-05-07T20:48:53.048Z,16.44
2023-05-07T20:51:21.363Z,16.32
2023-05-07T20:53:49.788Z,16.22
2023-05-07T20:56:17.860Z,16.03
2023-05-07T20:58:45.852Z,16.05
2023-05-07T21:01:14.047Z,15.98
2023-05-07T21:03:42.692Z,15.88
2023-05-07T21:06:12.686Z,16.05
2023-05-07T21:08:41.156Z,15.95
2023-05-07T21:11:10.260Z,16.04
2023-05-07T21:13:38.597Z,15.95
2023-05-07T21:16:06.937Z,15.89
2023-05-07T21:18:35.542Z,15.71
2023-05-07T21:21:09.189Z,15.56
2023-05-07T21:23:39.043Z,15.61
2023-05-07T21:26:07.181Z,15.44
2023-05-07T21:28:35.362Z,15.43
2023-05-07T21:31:03.694Z,15.23
2023-05-07T21:33:32.214Z,15.43
2023-05-07T21:36:00.609Z,15.19
2023-05-07T21:38:28.735Z,15.31
2023-05-07T21:40:59.001Z,15.26
2023-05-07T21:43:28.802Z,15.40
2023-05-07T21:45:57.136Z,15.40
2023-05-07T21:48:27.676Z,15.33
2023-05-07T21:51:02.152Z,15.43
2023-05-07T21:53:32.111Z,15.39
2023-05-07T21:56:03.000Z,15.45
2023-05-07T21:58:31.447Z,15.39
2023-05-07T22:00:59.937Z,15.46
2023-05-07T22:03:28.314Z,15.55
2023-05-07T22:05:57.186Z,15.52
2023-05-07T22:08:25.781Z,15.47
2023-05-07T22:10:54.767Z,15.33
2023-05-07T22:13:25.036Z,15.43
2023-05-07T22:15:57.582Z,15.35
2023-05-07T22:18:26.957Z,15.27
2023-05-07T22:20:55.365Z,15.15
2023-05-07T22:23:24.058Z,15.27
2023-05-07T22:25:52.466Z,15.19
2023-05-07T22:28:20.867Z,15.44
2023-05-07T22:30:51.537Z,15.04
2023-05-07T22:33:19.898Z,15.09
2023-05-07T22:35:48.124Z,15.21
2023-05-07T22:38:16.577Z,15.23
2023-05-07T22:40:44.626Z,15.12
2023-05-07T22:43:12.859Z,15.05
2023-05-07T22:45:41.396Z,15.05
2023-05-07T22:48:11.482Z,14.63
2023-05-07T22:50:40.028Z,14.70
2023-05-07T22:53:08.509Z,14.89
2023-05-07T22:55:36.918Z,15.04
2023-05-07T22:58:05.353Z,14.92
2023-05-07T23:00:34.104Z,15.01
2023-05-07T23:03:02.660Z,15.02
2023-05-07T23:05:32.559Z,15.00
2023-05-07T23:08:00.678Z,14.76
2023-05-07T23:10:28.906Z,14.83
2023-05-07T23:12:57.320Z,14.58
2023-05-07T23:15:25.807Z,14.79
2023-05-07T23:17:54.482Z,14.91
2023-05-07T23:20:23.205Z,15.01
2023-05-07T23:22:54.236Z,14.91
2023-05-07T23:25:22.999Z,14.87
2023-05-07T23:27:51.226Z,14.76
2023-05-07T23:30:19.590Z,14.80
2023-05-07T23:32:47.949Z,14.86
2023-05-07T23:35:16.373Z,14.88
2023-05-07T23:37:44.670Z,14.91
2023-05-07T23:40:14.412Z,14.83
2023-05-07T23:42:43.227Z,14.80
2023-05-07T23:45:12.165Z,14.72
2023-05-07T23:47:40.360Z,14.60
2023-05-07T23:50:08.988Z,14.62
2023-05-07T23:52:37.115Z,14.65
2023-05-07T23:55:05.742Z,14.35
2023-05-07T23:57:35.651Z,14.29
